Time;durP1;ratioP1;P1;durP2;ratioP2;P2;SDS_P1;SDS_P2;PMS_P1;PMS_P2;Temp;Humidity;BMP_temperature;BMP_pressure;BME280_temperature;BME280_humidity;BME280_pressure;Samples;Min_cycle;Max_cycle;Signal;HPM_P1;HPM_P2
2021/11/10 00:02:00;;;;;;;1999.90;999.90;;;;;;;2.15;58.63;102285.91;4990597;28;99303;-73
2021/11/10 00:04:28;;;;;;;1999.90;999.90;;;;;;;2.13;58.24;102287.50;4990444;28;96848;-73
2021/11/10 00:06:56;;;;;;;1999.90;999.90;;;;;;;2.12;58.30;102290.00;4990918;28;98395;-72
2021/11/10 00:09:25;;;;;;;1999.90;999.90;;;;;;;2.09;58.90;102290.66;4990438;28;98031;-72
2021/11/10 00:11:54;;;;;;;1999.90;999.90;;;;;;;2.06;58.28;102282.53;4974420;28;99666;-73
2021/11/10 00:14:22;;;;;;;1999.90;999.90;;;;;;;2.06;58.29;102281.59;5009216;28;97633;-72
2021/11/10 00:16:52;;;;;;;1999.90;999.90;;;;;;;2.03;58.60;102274.41;4991443;28;97500;-72
2021/11/10 00:19:20;;;;;;;1999.90;999.90;;;;;;;2.04;58.43;102275.31;4961729;28;97646;-72
2021/11/10 00:21:48;;;;;;;1999.90;999.90;;;;;;;1.99;58.76;102267.09;4991559;28;99275;-71
2021/11/10 00:24:17;;;;;;;1999.90;999.90;;;;;;;1.96;58.76;102266.81;4958614;28;97139;-74
2021/11/10 00:26:44;;;;;;;1999.90;999.90;;;;;;;1.95;58.35;102266.72;5008598;28;96856;-73
2021/11/10 00:29:12;;;;;;;1999.90;999.90;;;;;;;1.92;58.43;102264.78;4991397;28;97004;-74
2021/11/10 00:31:41;;;;;;;1999.90;999.90;;;;;;;1.90;58.33;102269.00;4990132;28;98399;-73
2021/11/10 00:34:10;;;;;;;1999.90;999.90;;;;;;;1.88;59.11;102259.16;4974048;28;100588;-73
2021/11/10 00:36:38;;;;;;;1999.90;999.90;;;;;;;1.85;58.83;102257.19;4976942;28;97580;-73
2021/11/10 00:39:06;;;;;;;1999.90;999.90;;;;;;;1.82;59.12;102250.78;5009434;28;97171;-72
2021/11/10 00:41:35;;;;;;;1999.90;999.90;;;;;;;1.79;58.92;102251.47;4990480;28;99646;-73
2021/11/10 00:44:03;;;;;;;1999.90;999.90;;;;;;;1.78;58.33;102256.59;4990934;28;97609;-73
2021/11/10 00:46:31;;;;;;;1999.90;999.90;;;;;;;1.74;58.86;102247.56;5007575;28;96704;-73
2021/11/10 00:48:59;;;;;;;1999.90;999.90;;;;;;;1.73;58.27;102244.78;4974215;28;97697;-73
2021/11/10 00:51:28;;;;;;;1999.90;999.90;;;;;;;1.71;58.32;102242.06;4990582;28;99054;-73
2021/11/10 00:53:57;;;;;;;1999.90;999.90;;;;;;;1.70;58.42;102241.94;5007370;28;97636;-73
2021/11/10 00:56:25;;;;;;;1999.90;999.90;;;;;;;1.65;58.46;102249.44;4972637;28;97256;-73
2021/11/10 00:58:53;;;;;;;1999.90;999.90;;;;;;;1.63;58.32;102237.94;4972830;28;97347;-73
2021/11/10 01:01:21;;;;;;;1999.90;999.90;;;;;;;1.60;58.59;102250.78;4974637;28;99842;-73
2021/11/10 01:03:49;;;;;;;1999.90;999.90;;;;;;;1.59;58.85;102253.28;4989464;28;100592;-73
2021/11/10 01:06:17;;;;;;;1999.90;999.90;;;;;;;1.57;58.89;102253.16;4989568;28;97962;-73
2021/11/10 01:08:47;;;;;;;1999.90;999.90;;;;;;;1.55;58.99;102249.50;4989106;28;96880;-73
2021/11/10 01:11:15;;;;;;;1999.90;999.90;;;;;;;1.53;59.04;102251.09;4973101;28;97647;-74
2021/11/10 01:13:43;;;;;;;1999.90;999.90;;;;;;;1.50;58.65;102245.59;4989703;28;97603;-72
2021/11/10 01:16:11;;;;;;;1999.90;999.90;;;;;;;1.49;59.14;102245.47;4962047;28;97432;-72
2021/11/10 01:18:42;;;;;;;1999.90;999.90;;;;;;;1.49;58.31;102243.75;4973658;28;96808;-73
2021/11/10 01:21:12;;;;;;;1999.90;999.90;;;;;;;1.48;58.36;102244.56;4988930;28;97776;-73
2021/11/10 01:23:40;;;;;;;1999.90;999.90;;;;;;;1.47;58.54;102237.47;4989894;28;97246;-73
2021/11/10 01:26:10;;;;;;;1999.90;999.90;;;;;;;1.49;58.46;102233.25;4989476;28;96817;-73
2021/11/10 01:28:39;;;;;;;1999.90;999.90;;;;;;;1.46;58.59;102226.84;4990300;28;97105;-74
2021/11/10 01:31:07;;;;;;;1999.90;999.90;;;;;;;1.45;58.50;102227.66;4973039;28;99340;-73
2021/11/10 01:33:35;;;;;;;1999.90;999.90;;;;;;;1.42;58.60;102220.44;4989283;28;98313;-73
2021/11/10 01:36:03;;;;;;;1999.90;999.90;;;;;;;1.40;58.86;102211.53;4989462;28;97108;-72
2021/11/10 01:38:31;;;;;;;1999.90;999.90;;;;;;;1.39;58.16;102195.69;4989642;28;96715;-73
2021/11/10 01:40:59;;;;;;;1999.90;999.90;;;;;;;1.38;59.00;102199.13;4989714;28;98865;-74
2021/11/10 01:43:32;;;;;;;1999.90;999.90;;;;;;;1.36;58.47;102187.59;4973501;28;100604;-74
2021/11/10 01:46:00;;;;;;;1999.90;999.90;;;;;;;1.34;59.06;102200.56;4973234;28;96862;-74
2021/11/10 01:48:31;;;;;;;1999.90;999.90;;;;;;;1.32;59.11;102196.91;4989980;28;97467;-73
2021/11/10 01:51:03;;;;;;;1999.90;999.90;;;;;;;1.31;58.17;102183.66;4989717;28;97753;-72
2021/11/10 01:53:32;;;;;;;1999.90;999.90;;;;;;;1.30;58.65;102179.22;4972164;28;97727;-74
2021/11/10 01:56:00;;;;;;;1999.90;999.90;;;;;;;1.29;58.12;102169.53;4971190;28;96820;-73
2021/11/10 01:58:29;;;;;;;1999.90;999.90;;;;;;;1.28;58.59;102179.09;4972754;28;96795;-73
2021/11/10 02:00:59;;;;;;;1999.90;999.90;;;;;;;1.26;58.34;102170.19;4972021;28;99316;-73
2021/11/10 02:03:27;;;;;;;1999.90;999.90;;;;;;;1.24;58.50;102163.91;4973546;28;97326;-74
2021/11/10 02:06:04;;;;;;;1999.90;999.90;;;;;;;1.22;58.11;102165.47;4971966;28;97156;-74
2021/11/10 02:08:59;;;;;;;1999.90;999.90;;;;;;;1.18;58.77;102156.47;4989319;28;97345;-73
2021/11/10 02:11:32;;;;;;;1999.90;999.90;;;;;;;1.17;58.75;102152.03;4991304;28;97110;-73
2021/11/10 02:14:06;;;;;;;1999.90;999.90;;;;;;;1.17;58.87;102145.84;4992867;28;98995;-72
2021/11/10 02:16:40;;;;;;;1999.90;999.90;;;;;;;1.14;58.72;102143.00;4993262;28;96774;-74
2021/11/10 02:19:14;;;;;;;1999.90;999.90;;;;;;;1.14;58.57;102150.88;4977155;28;97712;-73
2021/11/10 02:21:48;;;;;;;1999.90;999.90;;;;;;;1.13;59.01;102143.78;4976046;28;101545;-73
2021/11/10 02:24:16;;;;;;;1999.90;999.90;;;;;;;1.12;58.67;102134.97;4976227;28;97769;-74
2021/11/10 02:26:45;;;;;;;1999.90;999.90;;;;;;;1.10;58.46;102136.56;4976082;28;97704;-74
2021/11/10 02:29:14;;;;;;;1999.90;999.90;;;;;;;1.09;58.50;102128.59;4992526;28;97042;-74
2021/11/10 02:31:42;;;;;;;1999.90;999.90;;;;;;;1.05;58.56;102131.78;4962305;28;99557;-73
2021/11/10 02:34:10;;;;;;;1999.90;999.90;;;;;;;1.01;58.07;102122.72;4991801;28;101111;-73
2021/11/10 02:36:38;;;;;;;1999.90;999.90;;;;;;;0.98;58.52;102114.63;4992455;28;97529;-74
2021/11/10 02:39:09;;;;;;;1999.90;999.90;;;;;;;0.96;58.53;102118.81;4992855;28;97717;-72
2021/11/10 02:41:38;;;;;;;1999.90;999.90;;;;;;;0.95;58.26;102105.59;4976076;28;98733;-72
2021/11/10 02:44:07;;;;;;;1999.90;999.90;;;;;;;0.93;58.69;102100.25;4995316;28;98002;-74
2021/11/10 02:46:36;;;;;;;1999.90;999.90;;;;;;;0.91;58.38;102111.38;4997421;28;97166;-74
2021/11/10 02:49:05;;;;;;;1999.90;999.90;;;;;;;0.90;58.77;102117.44;4994263;28;96836;-71
2021/11/10 02:51:33;;;;;;;1999.90;999.90;;;;;;;0.87;58.54;102114.53;4992827;28;97189;-72
2021/11/10 02:54:02;;;;;;;1999.90;999.90;;;;;;;0.81;58.24;102114.94;4975295;28;97590;-71
2021/11/10 02:56:31;;;;;;;1999.90;999.90;;;;;;;0.76;58.98;102116.28;4975581;28;97398;-72
2021/11/10 02:58:59;;;;;;;1999.90;999.90;;;;;;;0.75;58.75;102121.41;4980114;28;96615;-72
2021/11/10 03:01:28;;;;;;;1999.90;999.90;;;;;;;0.74;58.72;102114.34;4972233;28;101793;-74
2021/11/10 03:03:57;;;;;;;1999.90;999.90;;;;;;;0.73;58.88;102107.28;4990317;28;99514;-71
2021/11/10 03:06:25;;;;;;;1999.90;999.90;;;;;;;0.72;58.95;102108.06;4973624;28;97487;-72
2021/11/10 03:08:54;;;;;;;1999.90;999.90;;;;;;;0.71;58.92;102111.47;4976021;28;96796;-72
2021/11/10 03:11:21;;;;;;;1999.90;999.90;;;;;;;0.71;58.70;102108.84;4991606;28;97935;-72
2021/11/10 03:13:53;;;;;;;1999.90;999.90;;;;;;;0.68;58.55;102100.75;4975229;28;100042;-73
2021/11/10 03:16:21;;;;;;;1999.90;999.90;;;;;;;0.66;58.76;102098.03;4992399;28;96812;-73
2021/11/10 03:18:49;;;;;;;1999.90;999.90;;;;;;;0.65;59.00;102111.88;4992734;28;97781;-72
2021/11/10 03:21:20;;;;;;;1999.90;999.90;;;;;;;0.64;58.83;102106.53;4992560;28;98024;-72
2021/11/10 03:23:47;;;;;;;1999.90;999.90;;;;;;;0.64;58.64;102109.16;4991141;28;99451;-72
2021/11/10 03:26:18;;;;;;;1999.90;999.90;;;;;;;0.63;58.92;102102.09;4973797;28;96986;-71
2021/11/10 03:28:47;;;;;;;1999.90;999.90;;;;;;;0.62;58.58;102110.72;4974725;28;98848;-74
2021/11/10 03:31:16;;;;;;;1999.90;999.90;;;;;;;0.59;58.98;102111.41;4974858;28;100567;-74
2021/11/10 03:33:45;;;;;;;1999.90;999.90;;;;;;;0.59;58.65;102105.25;5009712;28;97701;-72
2021/11/10 03:36:14;;;;;;;1999.90;999.90;;;;;;;0.58;58.60;102108.63;4973961;28;96616;-74
2021/11/10 03:38:43;;;;;;;1999.90;999.90;;;;;;;0.57;58.97;102101.59;4975917;28;97812;-73
2021/11/10 03:41:15;;;;;;;1999.90;999.90;;;;;;;0.55;58.91;102104.09;4991532;28;98905;-73
2021/11/10 03:43:45;;;;;;;1999.90;999.90;;;;;;;0.54;58.78;102096.09;4975512;28;99457;-73
2021/11/10 03:46:13;;;;;;;1999.90;999.90;;;;;;;0.52;58.62;102109.03;4974621;28;96775;-72
2021/11/10 03:48:42;;;;;;;1999.90;999.90;;;;;;;0.53;58.99;102104.72;4992123;28;97818;-71
2021/11/10 03:51:11;;;;;;;1999.90;999.90;;;;;;;0.49;58.75;102107.88;4961489;28;100045;-72
2021/11/10 03:53:39;;;;;;;1999.90;999.90;;;;;;;0.45;58.51;102117.19;5008232;28;98877;-73
2021/11/10 03:56:07;;;;;;;1999.90;999.90;;;;;;;0.39;58.80;102121.94;5009109;28;97076;-74
2021/11/10 03:58:35;;;;;;;1999.90;999.90;;;;;;;0.35;58.97;102119.84;4975461;28;97731;-72
2021/11/10 04:01:04;;;;;;;1999.90;999.90;;;;;;;0.30;58.78;102122.88;4959843;28;99178;-72
2021/11/10 04:03:34;;;;;;;1999.90;999.90;;;;;;;0.28;58.80;102119.22;4974938;28;99275;-74
2021/11/10 04:06:04;;;;;;;1999.90;999.90;;;;;;;0.26;59.31;102121.69;4974246;28;97422;-73
2021/11/10 04:08:35;;;;;;;1999.90;999.90;;;;;;;0.25;58.94;102127.69;4974910;28;97534;-75
2021/11/10 04:11:04;;;;;;;1999.90;999.90;;;;;;;0.24;58.93;102133.75;4990607;28;96845;-73
2021/11/10 04:13:32;;;;;;;1999.90;999.90;;;;;;;0.23;59.08;102126.63;4975561;28;100106;-72
2021/11/10 04:16:01;;;;;;;1999.90;999.90;;;;;;;0.23;58.88;102130.16;4988889;28;97218;-72
2021/11/10 04:18:33;;;;;;;1999.90;999.90;;;;;;;0.22;58.99;102130.03;4990197;28;96873;-72
2021/11/10 04:21:13;;;;;;;1999.90;999.90;;;;;;;0.21;58.98;102128.22;5007196;28;97752;-72
2021/11/10 04:23:41;;;;;;;1999.90;999.90;;;;;;;0.23;58.85;102134.47;5008287;28;98593;-74
2021/11/10 04:26:12;;;;;;;1999.90;999.90;;;;;;;0.22;58.78;102135.28;4990232;28;96897;-75
2021/11/10 04:28:40;;;;;;;1999.90;999.90;;;;;;;0.22;59.16;102132.66;4991195;28;97561;-74
2021/11/10 04:31:08;;;;;;;1999.90;999.90;;;;;;;0.19;58.97;102128.06;4990645;28;98796;-73
2021/11/10 04:33:39;;;;;;;1999.90;999.90;;;;;;;0.19;59.12;102122.84;4971289;28;96818;-72
2021/11/10 04:36:08;;;;;;;1999.90;999.90;;;;;;;0.19;59.14;102128.06;4990202;28;97152;-72
2021/11/10 04:38:41;;;;;;;1999.90;999.90;;;;;;;0.19;59.09;102127.19;4974396;28;96898;-73
2021/11/10 04:41:10;;;;;;;1999.90;999.90;;;;;;;0.18;59.20;102125.34;4990949;28;98733;-73
2021/11/10 04:43:38;;;;;;;1999.90;999.90;;;;;;;0.16;58.86;102127.81;4982425;28;99763;-72
2021/11/10 04:46:09;;;;;;;1999.90;999.90;;;;;;;0.15;59.09;102115.53;4973279;28;97036;-72
2021/11/10 04:48:38;;;;;;;1999.90;999.90;;;;;;;0.14;59.05;102113.69;4960429;28;97013;-72
2021/11/10 04:51:08;;;;;;;1999.90;999.90;;;;;;;0.12;58.80;102115.25;5001582;28;100886;-73
2021/11/10 04:53:37;;;;;;;1999.90;999.90;;;;;;;0.10;58.99;102123.78;5005773;28;98829;-72
2021/11/10 04:56:08;;;;;;;1999.90;999.90;;;;;;;0.07;59.02;102113.97;4990677;28;96686;-73
2021/11/10 04:58:36;;;;;;;1999.90;999.90;;;;;;;0.07;59.04;102100.88;4959072;28;97357;-73
2021/11/10 05:01:04;;;;;;;1999.90;999.90;;;;;;;0.07;58.86;102099.97;4971893;28;99282;-72
2021/11/10 05:03:32;;;;;;;1999.90;999.90;;;;;;;0.04;58.83;102098.03;4971438;28;99799;-73
2021/11/10 05:06:00;;;;;;;1999.90;999.90;;;;;;;0.03;58.80;102098.78;4970122;28;97190;-74
2021/11/10 05:08:28;;;;;;;1999.90;999.90;;;;;;;0.03;58.92;102096.19;4989141;28;97345;-72
2021/11/10 05:10:56;;;;;;;1999.90;999.90;;;;;;;0.03;59.20;102095.25;4989281;28;97183;-72
2021/11/10 05:13:27;;;;;;;1999.90;999.90;;;;;;;0.01;58.71;102092.50;4974696;28;99116;-72
2021/11/10 05:15:55;;;;;;;1999.90;999.90;;;;;;;-0.02;58.96;102097.50;4973356;28;97606;-73
2021/11/10 05:18:24;;;;;;;1999.90;999.90;;;;;;;-0.03;58.96;102093.03;4973631;28;97048;-73
2021/11/10 05:20:53;;;;;;;1999.90;999.90;;;;;;;-0.05;59.36;102094.63;4972786;28;97681;-73
2021/11/10 05:23:24;;;;;;;1999.90;999.90;;;;;;;-0.06;58.81;102089.25;4973635;28;100838;-72
2021/11/10 05:25:52;;;;;;;1999.90;999.90;;;;;;;-0.09;58.70;102089.91;4973217;28;98001;-73
2021/11/10 05:28:20;;;;;;;1999.90;999.90;;;;;;;-0.10;59.09;102084.56;4988483;28;96948;-73
2021/11/10 05:30:49;;;;;;;1999.90;999.90;;;;;;;-0.11;58.99;102085.34;4972448;28;100122;-73
2021/11/10 05:33:18;;;;;;;1999.90;999.90;;;;;;;-0.12;58.97;102083.53;4990075;28;101110;-74
2021/11/10 05:35:47;;;;;;;1999.90;999.90;;;;;;;-0.15;59.09;102071.09;4989468;28;96797;-72
2021/11/10 05:38:15;;;;;;;1999.90;999.90;;;;;;;0.31;57.57;102077.56;4972948;28;97912;-73
2021/11/10 05:40:43;;;;;;;1999.90;999.90;;;;;;;0.03;58.32;102077.84;4959519;28;99694;-72
2021/11/10 05:43:11;;;;;;;1999.90;999.90;;;;;;;-0.05;58.74;102078.94;4973726;28;99178;-72
2021/11/10 05:45:39;;;;;;;1999.90;999.90;;;;;;;-0.09;59.04;102071.63;4989654;28;97554;-72
2021/11/10 05:48:11;;;;;;;1999.90;999.90;;;;;;;-0.13;58.51;102066.91;5009397;28;96843;-70
2021/11/10 05:50:40;;;;;;;1999.90;999.90;;;;;;;-0.16;58.94;102070.97;4989070;28;99579;-72
2021/11/10 05:53:08;;;;;;;1999.90;999.90;;;;;;;-0.20;58.87;102050.56;5008405;28;97913;-73
2021/11/10 05:55:37;;;;;;;1999.90;999.90;;;;;;;-0.22;58.96;102058.28;4974387;28;97338;-72
2021/11/10 05:58:05;;;;;;;1999.90;999.90;;;;;;;-0.23;59.16;102052.94;4973221;28;97106;-73
2021/11/10 06:00:33;;;;;;;1999.90;999.90;;;;;;;-0.25;58.99;102058.03;5008310;28;97865;-72
2021/11/10 06:03:01;;;;;;;1999.90;999.90;;;;;;;-0.29;59.28;102061.16;5007696;28;97548;-71
2021/11/10 06:05:31;;;;;;;1999.90;999.90;;;;;;;-0.31;59.24;102062.72;4971073;28;97232;-73
2021/11/10 06:07:59;;;;;;;1999.90;999.90;;;;;;;-0.33;59.24;102052.91;4964051;28;96936;-72
2021/11/10 06:10:27;;;;;;;1999.90;999.90;;;;;;;-0.33;59.04;102059.06;4989626;28;99623;-72
2021/11/10 06:12:55;;;;;;;1999.90;999.90;;;;;;;-0.34;59.16;102062.50;4969309;28;99514;-73
2021/11/10 06:15:27;;;;;;;1999.90;999.90;;;;;;;-0.36;59.10;102069.28;4979138;28;98425;-71
2021/11/10 06:17:55;;;;;;;1999.90;999.90;;;;;;;-0.38;59.27;102063.00;4989707;28;97433;-72
2021/11/10 06:20:23;;;;;;;1999.90;999.90;;;;;;;-0.40;59.08;102068.88;4988855;28;99801;-71
2021/11/10 06:22:52;;;;;;;1999.90;999.90;;;;;;;-0.42;58.79;102063.53;5006992;28;96788;-72
2021/11/10 06:25:21;;;;;;;1999.90;999.90;;;;;;;-0.43;58.98;102069.50;4969145;28;97873;-71
2021/11/10 06:27:48;;;;;;;1999.90;999.90;;;;;;;-0.45;59.06;102073.72;4964913;28;98427;-71
2021/11/10 06:30:16;;;;;;;1999.90;999.90;;;;;;;-0.46;59.15;102076.19;4980914;28;100555;-72
2021/11/10 06:32:45;;;;;;;1999.90;999.90;;;;;;;-0.47;59.24;102071.75;4982848;28;100038;-72
2021/11/10 06:35:14;;;;;;;1999.90;999.90;;;;;;;-0.46;59.26;102070.97;4978359;28;97263;-73
2021/11/10 06:37:42;;;;;;;1999.90;999.90;;;;;;;-0.49;58.91;102074.25;4978178;28;97282;-73
2021/11/10 06:40:15;;;;;;;1999.90;999.90;;;;;;;-0.51;59.08;102083.66;4983676;28;98980;-73
2021/11/10 06:42:43;;;;;;;1999.90;999.90;;;;;;;-0.50;59.32;102084.59;4982909;28;97384;-72
2021/11/10 06:45:11;;;;;;;1999.90;999.90;;;;;;;-0.05;57.66;102080.63;4970386;28;97288;-73
2021/11/10 06:47:39;;;;;;;1999.90;999.90;;;;;;;-0.33;58.13;102073.84;4982091;28;97577;-72
2021/11/10 06:50:08;;;;;;;1999.90;999.90;;;;;;;-0.44;58.26;102096.47;5003954;28;97897;-72
2021/11/10 06:52:36;;;;;;;1999.90;999.90;;;;;;;-0.50;58.65;102106.38;4987607;28;99347;-72
2021/11/10 06:55:05;;;;;;;1999.90;999.90;;;;;;;-0.53;58.47;102113.06;4988407;28;96912;-73
2021/11/10 06:57:34;;;;;;;1999.90;999.90;;;;;;;-0.57;58.69;102109.25;5006782;28;97166;-70
2021/11/10 07:00:01;;;;;;;1999.90;999.90;;;;;;;-0.58;58.74;102111.75;4990582;28;99530;-73
2021/11/10 07:02:29;;;;;;;1999.90;999.90;;;;;;;-0.60;59.11;102106.38;4991776;28;97556;-72
2021/11/10 07:04:57;;;;;;;1999.90;999.90;;;;;;;-0.63;58.81;102113.97;5009983;28;97199;-73
2021/11/10 07:07:25;;;;;;;1999.90;999.90;;;;;;;-0.63;59.27;102119.22;4990902;28;97990;-72
2021/11/10 07:09:53;;;;;;;1999.90;999.90;;;;;;;-0.63;58.84;102121.81;4991322;28;99311;-73
2021/11/10 07:12:20;;;;;;;1999.90;999.90;;;;;;;-0.63;59.19;102119.22;4991518;28;98685;-73
2021/11/10 07:14:50;;;;;;;1999.90;999.90;;;;;;;-0.65;58.96;102112.94;4964192;28;97510;-73
2021/11/10 07:17:18;;;;;;;1999.90;999.90;;;;;;;-0.65;59.18;102109.38;4990374;28;97257;-71
2021/11/10 07:19:46;;;;;;;1999.90;999.90;;;;;;;-0.69;59.25;102123.88;4989587;28;97745;-72
2021/11/10 07:22:14;;;;;;;1999.90;999.90;;;;;;;-0.72;58.90;102126.22;5006826;28;98783;-71
2021/11/10 07:24:42;;;;;;;1999.90;999.90;;;;;;;-0.78;59.34;102130.00;4989704;28;97117;-72
2021/11/10 07:27:11;;;;;;;1999.90;999.90;;;;;;;-0.79;59.28;102125.56;4974646;28;97246;-72
2021/11/10 07:29:39;;;;;;;1999.90;999.90;;;;;;;-0.81;59.34;102134.19;4988990;28;97815;-73
2021/11/10 07:32:09;;;;;;;1999.90;999.90;;;;;;;-0.78;59.10;102123.97;4990631;28;98852;-71
2021/11/10 07:34:37;;;;;;;1999.90;999.90;;;;;;;-0.73;59.56;102131.31;4985020;28;96844;-71
2021/11/10 07:37:05;;;;;;;1999.90;999.90;;;;;;;-0.69;59.27;102129.13;5006076;28;97135;-72
2021/11/10 07:39:33;;;;;;;1999.90;999.90;;;;;;;-0.64;59.41;102132.13;4989605;28;97680;-72
2021/11/10 07:42:03;;;;;;;1999.90;999.90;;;;;;;-0.61;59.15;102125.44;5004489;28;99508;-72
2021/11/10 07:44:31;;;;;;;1999.90;999.90;;;;;;;-0.57;59.26;102135.41;4973018;28;97573;-72
2021/11/10 07:47:07;;;;;;;1999.90;999.90;;;;;;;-0.53;59.03;102142.72;4984113;28;97741;-72
2021/11/10 07:49:39;;;;;;;1999.90;999.90;;;;;;;-0.53;58.88;102153.19;5005184;28;97787;-71
2021/11/10 07:52:07;;;;;;;1999.90;999.90;;;;;;;-0.48;58.85;102151.88;4988970;28;99428;-72
2021/11/10 07:54:35;;;;;;;1999.90;999.90;;;;;;;-0.45;59.04;102154.78;4985801;28;97918;-72
2021/11/10 07:57:03;;;;;;;1999.90;999.90;;;;;;;-0.43;58.92;102139.22;4988805;28;96991;-73
2021/11/10 07:59:31;;;;;;;1999.90;999.90;;;;;;;-0.40;59.31;102147.31;5007584;28;97709;-73
2021/11/10 08:01:59;;;;;;;1999.90;999.90;;;;;;;-0.38;59.03;102138.84;5008205;28;99238;-73
2021/11/10 08:04:27;;;;;;;1999.90;999.90;;;;;;;-0.36;59.03;102129.44;5009042;28;97119;-70
2021/11/10 08:06:56;;;;;;;1999.90;999.90;;;;;;;-0.32;59.23;102128.00;4991010;28;97182;-70
2021/11/10 08:09:24;;;;;;;1999.90;999.90;;;;;;;-0.31;59.13;102117.66;4986840;28;99380;-71
2021/11/10 08:11:52;;;;;;;1999.90;999.90;;;;;;;-0.30;59.27;102116.84;4984543;28;100506;-74
2021/11/10 08:14:20;;;;;;;1999.90;999.90;;;;;;;-0.30;58.97;102114.25;4998623;28;97170;-72
2021/11/10 08:16:48;;;;;;;1999.90;999.90;;;;;;;-0.27;59.14;102117.13;4996677;28;96854;-71
2021/11/10 08:19:16;;;;;;;1999.90;999.90;;;;;;;-0.26;58.80;102118.97;4979872;28;99130;-72
2021/11/10 08:21:44;;;;;;;1999.90;999.90;;;;;;;-0.21;59.29;102111.53;4987611;28;99596;-72
2021/11/10 08:24:14;;;;;;;1999.90;999.90;;;;;;;-0.18;59.02;102111.75;4999622;28;97659;-73
2021/11/10 08:26:41;;;;;;;1999.90;999.90;;;;;;;-0.17;59.10;102109.28;5005298;28;96918;-71
2021/11/10 08:29:09;;;;;;;1999.90;999.90;;;;;;;-0.13;58.90;102100.91;4969092;28;97864;-72
2021/11/10 08:31:37;;;;;;;1999.90;999.90;;;;;;;-0.09;58.87;102103.00;4984064;28;99516;-72
2021/11/10 08:34:08;;;;;;;1999.90;999.90;;;;;;;-0.06;58.98;102103.25;5005382;28;98053;-72
2021/11/10 08:36:36;;;;;;;1999.90;999.90;;;;;;;-0.02;59.17;102105.34;4983363;28;97314;-71
2021/11/10 08:39:04;;;;;;;1999.90;999.90;;;;;;;0.02;59.24;102091.75;5004000;28;98299;-70
2021/11/10 08:41:34;;;;;;;1999.90;999.90;;;;;;;0.07;58.90;102095.66;4999206;28;99588;-73
2021/11/10 08:44:03;;;;;;;1999.90;999.90;;;;;;;0.13;58.61;102101.41;4982798;28;97873;-73
2021/11/10 08:46:31;;;;;;;1999.90;999.90;;;;;;;0.56;58.18;102105.00;4983689;28;97095;-72
2021/11/10 08:48:59;;;;;;;1999.90;999.90;;;;;;;0.35;58.21;102104.13;4981668;28;98606;-72
2021/11/10 08:51:27;;;;;;;1999.90;999.90;;;;;;;0.34;58.60;102101.41;4968185;28;100859;-73
2021/11/10 08:53:55;;;;;;;1999.90;999.90;;;;;;;0.34;58.53;102098.78;4970817;28;96892;-71
2021/11/10 08:56:23;;;;;;;1999.90;999.90;;;;;;;0.37;58.59;102106.88;4987700;28;96995;-71
2021/11/10 08:58:53;;;;;;;1999.90;999.90;;;;;;;0.40;58.61;102097.56;5006905;28;99486;-72
2021/11/10 09:01:21;;;;;;;1999.90;999.90;;;;;;;0.44;58.66;102099.66;5007471;28;98118;-73
2021/11/10 09:03:49;;;;;;;1999.90;999.90;;;;;;;0.49;58.23;102094.78;4973647;28;97364;-73
2021/11/10 09:06:17;;;;;;;1999.90;999.90;;;;;;;0.51;58.90;102108.91;4973194;28;97626;-73
2021/11/10 09:08:45;;;;;;;1999.90;999.90;;;;;;;0.51;58.61;102112.47;5004758;28;98092;-74
2021/11/10 09:11:14;;;;;;;1999.90;999.90;;;;;;;0.56;58.56;102102.38;4988312;28;96812;-73
2021/11/10 09:13:43;;;;;;;1999.90;999.90;;;;;;;0.61;58.40;102103.66;4989295;28;99050;-71
2021/11/10 09:16:12;;;;;;;1999.90;999.90;;;;;;;0.66;58.37;102113.72;4986938;28;97206;-71
2021/11/10 09:18:40;;;;;;;1999.90;999.90;;;;;;;0.72;58.96;102122.06;5007829;28;97651;-74
2021/11/10 09:21:09;;;;;;;1999.90;999.90;;;;;;;0.77;58.48;102112.91;4971265;28;99004;-73
2021/11/10 09:23:38;;;;;;;1999.90;999.90;;;;;;;0.83;58.39;102122.97;4989369;28;97181;-73
2021/11/10 09:26:06;;;;;;;1999.90;999.90;;;;;;;0.86;58.49;102115.34;4987456;28;97951;-72
2021/11/10 09:28:36;;;;;;;1999.90;999.90;;;;;;;0.91;58.36;102128.03;4988698;28;98385;-72
2021/11/10 09:31:04;;;;;;;1999.90;999.90;;;;;;;0.96;58.13;102125.75;5007566;28;99139;-73
2021/11/10 09:33:35;;;;;;;1999.90;999.90;;;;;;;1.01;58.50;102129.69;4989394;28;97430;-73
2021/11/10 09:36:03;;;;;;;1999.90;999.90;;;;;;;1.06;57.76;102123.09;5007727;28;97029;-74
2021/11/10 09:38:31;;;;;;;1999.90;999.90;;;;;;;1.08;58.19;102114.59;5006827;28;98926;-73
2021/11/10 09:41:00;;;;;;;1999.90;999.90;;;;;;;1.15;58.19;102113.34;4985042;28;98799;-72
2021/11/10 09:43:33;;;;;;;1999.90;999.90;;;;;;;1.18;58.63;102114.50;5007330;28;96857;-73
2021/11/10 09:46:01;;;;;;;1999.90;999.90;;;;;;;1.23;57.86;102106.09;4988706;28;96779;-73
2021/11/10 09:48:29;;;;;;;1999.90;999.90;;;;;;;1.26;58.26;102117.75;4988287;28;99611;-72
2021/11/10 09:50:58;;;;;;;1999.90;999.90;;;;;;;1.31;58.08;102104.97;4971261;28;100160;-73
2021/11/10 09:53:31;;;;;;;1999.90;999.90;;;;;;;1.38;57.84;102112.56;4983514;28;97163;-73
2021/11/10 09:55:59;;;;;;;1999.90;999.90;;;;;;;1.44;58.36;102119.19;4987418;28;96951;-72
2021/11/10 09:58:27;;;;;;;1999.90;999.90;;;;;;;1.48;57.77;102116.03;4971334;28;98941;-71
2021/11/10 10:00:58;;;;;;;1999.90;999.90;;;;;;;1.54;58.14;102105.09;5005947;28;97667;-71
2021/11/10 10:03:26;;;;;;;1999.90;999.90;;;;;;;1.58;57.90;102107.19;5006491;28;97510;-73
2021/11/10 10:05:55;;;;;;;1999.90;999.90;;;;;;;1.63;58.29;102111.06;4987298;28;97643;-72
2021/11/10 10:08:25;;;;;;;1999.90;999.90;;;;;;;1.66;57.64;102109.59;4978609;28;98296;-73
2021/11/10 10:10:53;;;;;;;1999.90;999.90;;;;;;;1.74;57.79;102120.69;4986146;28;101951;-73
2021/11/10 10:13:22;;;;;;;1999.90;999.90;;;;;;;1.77;57.58;102116.59;5000302;28;97795;-72
2021/11/10 10:15:51;;;;;;;1999.90;999.90;;;;;;;1.79;57.62;102116.72;4968709;28;96806;-73
2021/11/10 10:18:22;;;;;;;1999.90;999.90;;;;;;;1.80;57.77;102111.56;4983662;28;99191;-73
2021/11/10 10:20:56;;;;;;;1999.90;999.90;;;;;;;1.82;57.58;102094.25;4981020;28;97395;-72
2021/11/10 10:23:29;;;;;;;1999.90;999.90;;;;;;;1.90;58.10;102100.06;5007306;28;96839;-73
2021/11/10 10:25:58;;;;;;;1999.90;999.90;;;;;;;1.94;57.73;102097.81;5006461;28;97371;-74
2021/11/10 10:28:28;;;;;;;1999.90;999.90;;;;;;;2.00;57.95;102087.75;4970551;28;99314;-74
2021/11/10 10:30:59;;;;;;;1999.90;999.90;;;;;;;2.04;57.94;102083.66;5003466;28;100295;-74
2021/11/10 10:33:30;;;;;;;1999.90;999.90;;;;;;;2.09;58.29;102084.97;4999716;28;96858;-74
2021/11/10 10:36:00;;;;;;;1999.90;999.90;;;;;;;2.11;57.95;102084.28;4991082;28;97427;-74
2021/11/10 10:38:33;;;;;;;1999.90;999.90;;;;;;;2.15;58.20;102083.72;4991680;28;99982;-72
2021/11/10 10:41:02;;;;;;;1999.90;999.90;;;;;;;2.23;57.47;102091.25;4972485;28;99231;-72
2021/11/10 10:43:30;;;;;;;1999.90;999.90;;;;;;;2.29;57.43;102090.03;5010089;28;98889;-74
2021/11/10 10:45:59;;;;;;;1999.90;999.90;;;;;;;2.34;57.54;102082.47;4990259;28;96653;-72
2021/11/10 10:48:28;;;;;;;1999.90;999.90;;;;;;;2.39;57.10;102075.84;5004109;28;97827;-72
2021/11/10 10:50:58;;;;;;;1999.90;999.90;;;;;;;2.46;57.45;102078.13;4991140;28;99271;-73
2021/11/10 10:53:36;;;;;;;1999.90;999.90;;;;;;;2.48;57.26;102081.78;4973369;28;97121;-73
2021/11/10 10:56:21;;;;;;;1999.90;999.90;;;;;;;2.55;57.20;102082.34;5001632;28;98153;-72
2021/11/10 10:58:50;;;;;;;1999.90;999.90;;;;;;;2.64;57.54;102077.75;4977771;28;100894;-72
2021/11/10 11:01:21;;;;;;;1999.90;999.90;;;;;;;2.71;57.25;102073.88;4985284;28;99344;-73